Time;durP1;ratioP1;P1;durP2;ratioP2;P2;SDS_P1;SDS_P2;PMS_P1;PMS_P2;Temp;Humidity;BMP_temperature;BMP_pressure;BME280_temperature;BME280_humidity;BME280_pressure;Samples;Min_cycle;Max_cycle;Signal;HPM_P1;HPM_P2
2021/11/23 00:00:45;;;;;;;25.10;11.70;;;;;;;1.70;100.00;96184.78;5020664;28;20048;-75
2021/11/23 00:03:17;;;;;;;26.17;12.32;;;;;;;1.71;100.00;96191.56;5026494;28;20100;-76
2021/11/23 00:05:44;;;;;;;28.08;12.27;;;;;;;1.78;100.00;96200.19;5024561;28;20116;-76
2021/11/23 00:08:11;;;;;;;26.92;11.93;;;;;;;1.80;100.00;96198.19;5026170;28;20053;-76
2021/11/23 00:10:40;;;;;;;26.17;11.98;;;;;;;1.69;100.00;96203.94;5027777;28;20046;-76
2021/11/23 00:13:06;;;;;;;27.95;12.38;;;;;;;1.66;100.00;96204.34;5027285;28;20060;-74
2021/11/23 00:15:35;;;;;;;29.85;12.50;;;;;;;1.68;100.00;96212.72;5019252;28;20049;-76
2021/11/23 00:18:05;;;;;;;24.50;11.82;;;;;;;1.66;100.00;96206.94;5023419;28;20050;-76
2021/11/23 00:20:33;;;;;;;24.60;10.98;;;;;;;1.73;100.00;96210.34;5021263;28;20073;-76
2021/11/23 00:22:59;;;;;;;29.55;11.75;;;;;;;1.81;100.00;96212.75;5027146;28;20034;-76
2021/11/23 00:25:26;;;;;;;27.08;11.73;;;;;;;1.82;100.00;96214.34;5019312;28;20418;-76
2021/11/23 00:27:52;;;;;;;29.92;11.75;;;;;;;1.71;100.00;96207.13;5026130;28;20121;-76
2021/11/23 00:30:18;;;;;;;29.60;12.95;;;;;;;1.66;100.00;96214.72;5026185;28;20041;-75
2021/11/23 00:32:43;;;;;;;25.90;11.55;;;;;;;1.69;100.00;96211.72;5027685;28;20499;-76
2021/11/23 00:35:09;;;;;;;28.38;11.70;;;;;;;1.66;100.00;96214.72;5026786;28;20042;-76
2021/11/23 00:37:35;;;;;;;28.40;12.23;;;;;;;1.54;100.00;96210.09;5027228;28;20049;-75
2021/11/23 00:40:00;;;;;;;27.42;11.45;;;;;;;1.56;100.00;96210.69;5026663;28;20045;-75
2021/11/23 00:42:26;;;;;;;27.48;11.82;;;;;;;1.55;100.00;96209.09;5023589;28;20052;-75
2021/11/23 00:44:53;;;;;;;24.20;10.80;;;;;;;1.60;100.00;96215.50;5026420;28;20042;-76
2021/11/23 00:47:19;;;;;;;25.80;12.23;;;;;;;1.46;100.00;96214.66;5025840;28;20506;-76
2021/11/23 00:49:45;;;;;;;28.73;11.77;;;;;;;1.51;100.00;96218.25;5025881;28;20049;-76
2021/11/23 00:52:12;;;;;;;28.75;11.85;;;;;;;1.48;100.00;96223.84;5023908;28;20038;-74
2021/11/23 00:54:39;;;;;;;29.95;11.45;;;;;;;1.49;100.00;96214.25;5024165;28;20037;-74
2021/11/23 00:57:04;;;;;;;26.50;11.65;;;;;;;1.47;100.00;96217.03;5012058;28;20099;-74
2021/11/23 00:59:30;;;;;;;27.95;12.13;;;;;;;1.41;100.00;96217.81;5027216;28;20045;-74
2021/11/23 01:01:56;;;;;;;24.75;11.55;;;;;;;1.40;100.00;96221.41;5038396;28;20046;-74
2021/11/23 01:04:22;;;;;;;26.58;12.05;;;;;;;1.41;100.00;96219.59;5018887;28;20042;-74
2021/11/23 01:06:49;;;;;;;24.63;11.35;;;;;;;1.44;100.00;96227.81;5024941;28;20076;-74
2021/11/23 01:09:16;;;;;;;25.55;10.43;;;;;;;1.43;100.00;96226.19;5026910;28;20408;-74
2021/11/23 01:11:42;;;;;;;21.25;10.20;;;;;;;1.43;100.00;96226.19;5024383;28;20044;-75
2021/11/23 01:14:08;;;;;;;26.98;11.43;;;;;;;1.37;100.00;96226.97;5025554;28;20120;-75
2021/11/23 01:16:35;;;;;;;24.17;11.43;;;;;;;1.35;100.00;96234.13;5026036;28;20045;-75
2021/11/23 01:19:01;;;;;;;23.17;10.60;;;;;;;1.33;100.00;96236.13;5027352;28;20049;-75
2021/11/23 01:21:26;;;;;;;24.90;10.88;;;;;;;1.36;100.00;96235.75;5028665;28;20581;-76
2021/11/23 01:23:53;;;;;;;23.88;11.23;;;;;;;1.35;100.00;96239.31;5029504;28;20073;-75
2021/11/23 01:26:20;;;;;;;25.98;10.95;;;;;;;1.30;100.00;96236.53;5030038;28;20068;-75
2021/11/23 01:28:45;;;;;;;20.40;10.43;;;;;;;1.27;100.00;96247.28;5029583;28;20045;-75
2021/11/23 01:31:12;;;;;;;20.60;9.98;;;;;;;1.20;100.00;96242.84;5023868;28;20097;-75
2021/11/23 01:33:37;;;;;;;24.92;10.75;;;;;;;1.14;100.00;96241.03;5023493;28;20049;-74
2021/11/23 01:36:03;;;;;;;26.17;10.75;;;;;;;1.16;100.00;96252.00;5029222;28;20042;-75
2021/11/23 01:38:30;;;;;;;23.42;10.63;;;;;;;1.06;100.00;96237.81;5030556;28;22295;-75
2021/11/23 01:40:57;;;;;;;26.65;10.98;;;;;;;1.05;100.00;96237.00;5028736;28;20041;-75
2021/11/23 01:43:22;;;;;;;25.13;11.00;;;;;;;0.95;100.00;96239.13;5030075;28;20100;-75
2021/11/23 01:45:48;;;;;;;28.38;11.27;;;;;;;1.05;100.00;96239.59;5028748;28;20442;-74
2021/11/23 01:48:14;;;;;;;29.02;11.45;;;;;;;0.93;100.00;96230.75;5016169;28;20042;-75
2021/11/23 01:50:39;;;;;;;22.27;10.35;;;;;;;0.94;100.00;96237.53;5023965;28;20037;-75
2021/11/23 01:53:07;;;;;;;23.77;11.02;;;;;;;0.92;100.00;96244.69;5026705;28;20057;-75
2021/11/23 01:55:35;;;;;;;20.17;9.55;;;;;;;0.86;100.00;96231.50;5029731;28;20037;-75
2021/11/23 01:58:02;;;;;;;24.27;10.50;;;;;;;0.95;100.00;96239.13;5027998;28;20101;-75
2021/11/23 02:00:29;;;;;;;23.08;10.15;;;;;;;1.00;100.00;96236.75;5030197;28;20042;-75
2021/11/23 02:02:54;;;;;;;20.75;9.27;;;;;;;0.85;100.00;96235.09;5030376;28;20115;-74
2021/11/23 02:05:20;;;;;;;24.38;10.32;;;;;;;0.83;100.00;96237.09;5030071;28;20119;-75
2021/11/23 02:07:46;;;;;;;19.58;9.88;;;;;;;0.81;100.00;96239.03;5028401;28;20042;-75
2021/11/23 02:10:11;;;;;;;23.67;10.38;;;;;;;0.86;100.00;96239.28;5024025;28;20501;-75
2021/11/23 02:12:37;;;;;;;22.33;10.77;;;;;;;0.90;100.00;96244.09;5029286;28;20388;-75
2021/11/23 02:15:07;;;;;;;22.92;10.25;;;;;;;0.80;100.00;96247.00;5028833;28;20049;-74
2021/11/23 02:17:32;;;;;;;23.42;9.85;;;;;;;0.79;100.00;96251.41;5017157;28;20049;-75
2021/11/23 02:19:59;;;;;;;22.67;9.95;;;;;;;0.73;100.00;96252.13;5016836;28;20112;-75
2021/11/23 02:22:24;;;;;;;22.77;9.68;;;;;;;0.68;100.00;96254.50;5028569;28;20519;-74
2021/11/23 02:24:50;;;;;;;24.33;10.27;;;;;;;0.71;100.00;96254.13;5027837;28;20104;-75
2021/11/23 02:27:15;;;;;;;23.75;10.38;;;;;;;0.68;100.00;96251.91;5029082;28;20041;-75
2021/11/23 02:29:41;;;;;;;23.42;10.57;;;;;;;0.68;100.00;96246.72;5028280;28;20088;-75
2021/11/23 02:32:08;;;;;;;22.45;10.02;;;;;;;0.67;100.00;96258.06;5016660;28;20104;-75
2021/11/23 02:34:33;;;;;;;20.92;9.50;;;;;;;0.68;100.00;96254.50;5018507;28;20033;-74
2021/11/23 02:36:59;;;;;;;21.65;10.07;;;;;;;0.63;100.00;96256.84;5023025;28;20049;-74
2021/11/23 02:39:25;;;;;;;23.10;10.40;;;;;;;0.56;100.00;96250.81;5025577;28;20041;-74
2021/11/23 02:41:50;;;;;;;20.77;8.75;;;;;;;0.61;100.00;96246.66;5029211;28;20072;-74
2021/11/23 02:44:16;;;;;;;23.30;10.68;;;;;;;0.54;100.00;96247.63;5027738;28;20068;-75
2021/11/23 02:46:42;;;;;;;19.17;8.55;;;;;;;0.51;100.00;96249.59;5028264;28;20045;-75
2021/11/23 02:49:07;;;;;;;21.58;9.50;;;;;;;0.55;100.00;96249.19;5029121;28;20048;-75
2021/11/23 02:51:35;;;;;;;21.70;9.32;;;;;;;0.46;100.00;96257.13;5027243;28;20046;-75
2021/11/23 02:54:01;;;;;;;21.25;9.43;;;;;;;0.56;100.00;96253.41;5021030;28;20091;-75
2021/11/23 02:56:26;;;;;;;26.38;10.30;;;;;;;0.52;100.00;96250.41;5029204;28;20046;-75
2021/11/23 02:58:52;;;;;;;19.25;9.43;;;;;;;0.57;100.00;96253.22;5026332;28;20076;-74
2021/11/23 03:01:24;;;;;;;22.55;9.77;;;;;;;0.45;100.00;96245.16;5043619;28;20045;-75
2021/11/23 03:03:51;;;;;;;26.75;10.90;;;;;;;0.59;100.00;96255.63;5025391;28;20045;-75
2021/11/23 03:06:17;;;;;;;20.38;9.25;;;;;;;0.52;100.00;96251.19;5013683;28;20121;-75
2021/11/23 03:08:48;;;;;;;26.17;9.98;;;;;;;0.61;100.00;96258.84;5026458;28;20034;-75
2021/11/23 03:11:15;;;;;;;22.27;10.00;;;;;;;0.60;100.00;96250.25;5017992;28;20049;-75
2021/11/23 03:13:41;;;;;;;19.67;9.60;;;;;;;0.45;100.00;96252.13;5027444;28;20045;-75
2021/11/23 03:16:08;;;;;;;22.92;10.02;;;;;;;0.58;100.00;96243.66;5024533;28;20053;-75
2021/11/23 03:18:33;;;;;;;22.42;10.23;;;;;;;0.48;100.00;96249.97;5028718;28;20455;-75
2021/11/23 03:20:59;;;;;;;24.50;10.23;;;;;;;0.50;100.00;96252.38;5027300;28;20037;-75
2021/11/23 03:23:25;;;;;;;23.95;10.43;;;;;;;0.57;100.00;96255.00;5027440;28;20080;-75
2021/11/23 03:25:51;;;;;;;26.77;10.32;;;;;;;0.52;100.00;96251.19;5027265;28;20511;-75
2021/11/23 03:28:17;;;;;;;26.63;10.25;;;;;;;0.52;100.00;96256.38;5027520;28;20037;-75
2021/11/23 03:30:43;;;;;;;23.67;10.70;;;;;;;0.42;100.00;96250.72;5017082;28;20046;-75
2021/11/23 03:33:09;;;;;;;24.02;9.98;;;;;;;0.49;100.00;96251.56;5027882;28;20091;-75
2021/11/23 03:35:38;;;;;;;22.75;10.07;;;;;;;0.42;100.00;96250.72;5027751;28;20064;-75
2021/11/23 03:38:05;;;;;;;23.50;9.55;;;;;;;0.41;100.00;96254.28;5026260;28;20088;-75
2021/11/23 03:40:33;;;;;;;23.90;10.38;;;;;;;0.40;100.00;96252.69;5027372;28;20052;-74
2021/11/23 03:42:58;;;;;;;25.63;10.70;;;;;;;0.44;100.00;96259.09;5026429;28;20045;-75
2021/11/23 03:45:25;;;;;;;24.05;10.32;;;;;;;0.43;100.00;96254.91;5026505;28;20469;-75
2021/11/23 03:47:51;;;;;;;25.80;10.00;;;;;;;0.42;100.00;96261.06;5027454;28;20120;-75
2021/11/23 03:50:17;;;;;;;23.70;10.40;;;;;;;0.36;100.00;96261.81;5017552;28;20145;-75
2021/11/23 03:52:43;;;;;;;24.00;10.27;;;;;;;0.34;100.00;96248.25;5025540;28;20116;-75
2021/11/23 03:55:14;;;;;;;22.27;10.20;;;;;;;0.33;100.00;96260.41;5026670;28;20103;-75
2021/11/23 03:57:40;;;;;;;24.27;10.27;;;;;;;0.27;100.00;96247.38;5026873;28;20040;-75
2021/11/23 04:00:07;;;;;;;22.15;9.60;;;;;;;0.21;100.00;96253.31;5026568;28;20064;-75
2021/11/23 04:02:33;;;;;;;21.92;10.02;;;;;;;0.21;100.00;96253.31;5025725;28;20096;-75
2021/11/23 04:04:58;;;;;;;24.48;10.18;;;;;;;0.28;100.00;96251.59;5027449;28;20038;-75
2021/11/23 04:07:24;;;;;;;24.58;10.50;;;;;;;0.18;100.00;96259.66;5023956;28;20251;-75
2021/11/23 04:09:49;;;;;;;22.25;9.98;;;;;;;0.15;100.00;96250.47;5026871;28;20041;-75
2021/11/23 04:12:16;;;;;;;27.48;10.95;;;;;;;0.14;100.00;96254.06;5025821;28;20041;-74
2021/11/23 04:14:42;;;;;;;22.73;9.45;;;;;;;0.27;100.00;96257.75;5027020;28;20038;-74
2021/11/23 04:17:08;;;;;;;19.15;8.95;;;;;;;0.40;100.00;96257.84;5026375;28;20504;-75
2021/11/23 04:19:34;;;;;;;20.65;9.82;;;;;;;0.20;100.00;96262.06;5027201;28;20042;-75
2021/11/23 04:22:02;;;;;;;26.05;10.77;;;;;;;0.19;100.00;96263.03;5027291;28;20041;-75
2021/11/23 04:24:28;;;;;;;26.55;10.23;;;;;;;0.21;100.00;96268.84;5026266;28;20537;-75
2021/11/23 04:26:54;;;;;;;26.38;11.32;;;;;;;0.16;100.00;96267.63;5026149;28;20132;-75
2021/11/23 04:29:20;;;;;;;26.95;10.05;;;;;;;0.20;100.00;96259.47;5026856;28;20046;-75
2021/11/23 04:31:45;;;;;;;27.40;11.13;;;;;;;0.16;100.00;96252.09;5027146;28;20041;-74
2021/11/23 04:34:11;;;;;;;25.05;10.45;;;;;;;0.20;100.00;96251.72;5027272;28;20060;-75
2021/11/23 04:36:37;;;;;;;24.80;10.95;;;;;;;0.19;100.00;96260.44;5025377;28;20045;-75
2021/11/23 04:39:03;;;;;;;25.70;10.70;;;;;;;0.09;100.00;96261.56;5026513;28;20087;-74
2021/11/23 04:41:29;;;;;;;28.48;10.48;;;;;;;0.15;100.00;96266.00;5017675;28;20682;-75
2021/11/23 04:43:55;;;;;;;25.00;10.70;;;;;;;0.16;100.00;96267.63;5027006;28;20037;-75
2021/11/23 04:46:21;;;;;;;24.50;11.55;;;;;;;0.15;100.00;96263.41;5017706;28;20064;-75
2021/11/23 04:48:47;;;;;;;24.88;10.27;;;;;;;0.17;100.00;96264.06;5019128;28;20498;-75
2021/11/23 04:51:13;;;;;;;24.48;10.35;;;;;;;0.19;100.00;96268.22;5026998;28;20045;-75
2021/11/23 04:53:38;;;;;;;27.75;11.52;;;;;;;0.10;100.00;96268.38;5027400;28;20040;-75
2021/11/23 04:56:04;;;;;;;26.33;11.23;;;;;;;0.10;100.00;96263.19;5030343;28;20045;-74
2021/11/23 04:58:30;;;;;;;24.17;10.38;;;;;;;0.19;100.00;96271.63;5031015;28;20051;-75
2021/11/23 05:00:55;;;;;;;24.33;10.40;;;;;;;0.14;100.00;96274.78;5029288;28;20509;-75
2021/11/23 05:03:21;;;;;;;24.33;10.48;;;;;;;0.19;100.00;96275.97;5030534;28;20038;-75
2021/11/23 05:05:46;;;;;;;23.83;10.15;;;;;;;0.11;100.00;96285.47;5028542;28;20426;-74
2021/11/23 05:08:12;;;;;;;22.98;10.10;;;;;;;0.13;100.00;96291.28;5029134;28;20049;-75
2021/11/23 05:10:37;;;;;;;26.50;10.23;;;;;;;0.07;100.00;96289.44;5030773;28;20037;-75
2021/11/23 05:13:03;;;;;;;25.15;10.45;;;;;;;0.16;100.00;96293.50;5029786;28;20049;-74
2021/11/23 05:15:28;;;;;;;24.80;11.07;;;;;;;0.16;100.00;96298.69;5022663;28;20042;-75
2021/11/23 05:17:54;;;;;;;30.75;11.23;;;;;;;0.10;100.00;96291.66;5029839;28;20547;-75
2021/11/23 05:20:19;;;;;;;22.75;9.77;;;;;;;0.11;100.00;96295.81;5031024;28;20041;-75
2021/11/23 05:22:45;;;;;;;23.48;10.95;;;;;;;0.10;100.00;96296.84;5030066;28;20049;-75
2021/11/23 05:25:11;;;;;;;22.98;10.20;;;;;;;0.08;100.00;96296.19;5030367;28;20041;-75
2021/11/23 05:27:36;;;;;;;21.48;9.80;;;;;;;0.12;100.00;96301.81;5029676;28;20037;-75
2021/11/23 05:30:03;;;;;;;24.33;10.02;;;;;;;0.05;100.00;96299.16;5030432;28;20079;-75
2021/11/23 05:32:30;;;;;;;23.13;10.13;;;;;;;0.09;100.00;96312.53;5031064;28;20056;-75
2021/11/23 05:34:55;;;;;;;24.85;10.35;;;;;;;0.06;100.00;96308.53;5030381;28;20049;-74
2021/11/23 05:37:21;;;;;;;25.35;10.75;;;;;;;0.03;100.00;96318.44;5025418;28;20517;-75
2021/11/23 05:39:46;;;;;;;24.08;10.88;;;;;;;-0.04;100.00;96313.19;5030365;28;20062;-75
2021/11/23 05:42:12;;;;;;;23.23;10.60;;;;;;;-0.19;100.00;96316.63;5030720;28;20111;-75
2021/11/23 05:44:38;;;;;;;23.30;10.43;;;;;;;-0.18;100.00;96313.03;5026479;28;20079;-74
2021/11/23 05:47:04;;;;;;;22.20;9.95;;;;;;;-0.26;100.00;96309.75;5023921;28;20092;-75
2021/11/23 05:49:30;;;;;;;22.08;9.57;;;;;;;-0.24;100.00;96306.00;5029846;28;20088;-75
2021/11/23 05:51:55;;;;;;;24.98;11.20;;;;;;;-0.23;100.00;96309.38;5024890;28;20045;-75
2021/11/23 05:54:22;;;;;;;24.90;10.48;;;;;;;-0.24;100.00;96308.59;5028803;28;20040;-75
2021/11/23 05:56:47;;;;;;;30.15;11.02;;;;;;;-0.31;100.00;96307.72;5028223;28;20041;-75
2021/11/23 05:59:13;;;;;;;22.40;10.23;;;;;;;-0.27;100.00;96303.78;5030400;28;20468;-75
2021/11/23 06:01:39;;;;;;;23.23;9.75;;;;;;;-0.26;100.00;96309.75;5024418;28;20100;-74
2021/11/23 06:04:05;;;;;;;27.92;11.27;;;;;;;-0.22;100.00;96309.19;5029363;28;20050;-75
2021/11/23 06:06:31;;;;;;;23.75;10.73;;;;;;;-0.21;100.00;96316.00;5022322;28;20116;-75
2021/11/23 06:08:57;;;;;;;23.15;10.40;;;;;;;-0.21;100.00;96316.00;5029029;28;20125;-75
2021/11/23 06:11:22;;;;;;;24.48;9.95;;;;;;;-0.22;100.00;96316.97;5029926;28;20045;-74
2021/11/23 06:13:48;;;;;;;25.42;10.90;;;;;;;-0.25;100.00;96317.31;5029167;28;20042;-74
2021/11/23 06:16:15;;;;;;;27.52;11.68;;;;;;;-0.32;100.00;96316.44;5029135;28;20096;-76
2021/11/23 06:18:41;;;;;;;27.75;11.77;;;;;;;-0.23;100.00;96324.91;5028131;28;20045;-75
2021/11/23 06:21:08;;;;;;;27.40;10.85;;;;;;;-0.30;100.00;96330.03;5028306;28;20045;-74
2021/11/23 06:23:35;;;;;;;27.35;11.90;;;;;;;-0.32;100.00;96334.56;5028149;28;20041;-75
2021/11/23 06:26:01;;;;;;;26.58;11.38;;;;;;;-0.43;100.00;96335.00;5025309;28;20042;-74
2021/11/23 06:28:27;;;;;;;29.67;11.93;;;;;;;-0.49;100.00;96335.72;5027539;28;20049;-74
2021/11/23 06:30:53;;;;;;;26.05;11.23;;;;;;;-0.51;100.00;96337.69;5025557;28;20037;-74
2021/11/23 06:33:19;;;;;;;52.58;14.55;;;;;;;-0.50;100.00;96336.69;5029439;28;20451;-74
2021/11/23 06:35:45;;;;;;;34.40;11.95;;;;;;;-0.34;100.00;96339.13;5027456;28;20045;-75
2021/11/23 06:38:11;;;;;;;28.10;12.30;;;;;;;-0.37;100.00;96344.66;5028681;28;20053;-75
2021/11/23 06:40:38;;;;;;;26.00;11.35;;;;;;;-0.44;100.00;96343.75;5028253;28;20119;-75
2021/11/23 06:43:07;;;;;;;26.27;11.90;;;;;;;-0.44;100.00;96354.09;5015468;28;20484;-74
2021/11/23 06:45:34;;;;;;;27.25;11.57;;;;;;;-0.45;100.00;96357.66;5020253;28;20038;-75
2021/11/23 06:48:00;;;;;;;28.45;11.40;;;;;;;-0.57;100.00;96359.91;5044369;28;20045;-75
2021/11/23 06:50:31;;;;;;;26.20;12.02;;;;;;;-0.56;100.00;96362.31;5029349;28;20104;-75
2021/11/23 06:53:00;;;;;;;26.27;11.55;;;;;;;-0.57;100.00;96368.44;5026659;28;20053;-74
2021/11/23 06:55:26;;;;;;;28.40;12.30;;;;;;;-0.51;100.00;96373.91;5022487;28;20492;-75
2021/11/23 06:57:51;;;;;;;29.23;11.13;;;;;;;-0.63;100.00;96371.75;5025380;28;20041;-75
2021/11/23 07:00:18;;;;;;;29.75;12.38;;;;;;;-0.57;100.00;96368.44;5028738;28;20096;-75
2021/11/23 07:02:44;;;;;;;27.60;11.32;;;;;;;-0.48;100.00;96389.06;5028952;28;20133;-74
2021/11/23 07:05:09;;;;;;;27.35;11.63;;;;;;;-0.38;100.00;96389.59;5025639;28;20109;-75
2021/11/23 07:07:35;;;;;;;25.80;11.50;;;;;;;-0.50;100.00;96385.81;5028689;28;20057;-75
2021/11/23 07:10:03;;;;;;;25.23;11.02;;;;;;;-0.52;100.00;96388.59;5028230;28;20076;-75
2021/11/23 07:12:29;;;;;;;26.83;11.27;;;;;;;-0.42;100.00;96398.69;5019914;28;20088;-75
2021/11/23 07:14:54;;;;;;;25.75;11.60;;;;;;;-0.50;100.00;96391.00;5020591;28;20495;-75
2021/11/23 07:17:20;;;;;;;31.00;12.20;;;;;;;-0.43;100.00;96397.88;5027339;28;20061;-74
2021/11/23 07:19:46;;;;;;;26.15;11.63;;;;;;;-0.39;100.00;96398.31;5027539;28;20068;-75
2021/11/23 07:22:11;;;;;;;26.33;12.10;;;;;;;-0.40;100.00;96396.75;5037652;28;20053;-75
2021/11/23 07:24:37;;;;;;;27.40;11.30;;;;;;;-0.29;100.00;96408.41;5027051;28;20045;-75
2021/11/23 07:27:03;;;;;;;27.23;12.60;;;;;;;-0.39;100.00;96403.50;5027911;28;20805;-74
2021/11/23 07:29:28;;;;;;;28.48;11.23;;;;;;;-0.29;100.00;96400.66;5027732;28;20682;-74
2021/11/23 07:31:54;;;;;;;31.70;11.27;;;;;;;-0.27;100.00;96402.09;5028206;28;20062;-75
2021/11/23 07:34:20;;;;;;;26.73;11.32;;;;;;;-0.19;100.00;96396.00;5043833;28;20037;-75
2021/11/23 07:36:46;;;;;;;28.17;11.63;;;;;;;-0.26;100.00;96406.28;5026305;28;20045;-75
2021/11/23 07:39:17;;;;;;;30.98;12.52;;;;;;;-0.32;100.00;96404.38;5100821;27;20394;-75
2021/11/23 07:41:43;;;;;;;29.98;12.45;;;;;;;-0.27;100.00;96402.09;5082703;28;20104;-74
2021/11/23 07:44:10;;;;;;;23.77;10.57;;;;;;;-0.31;100.00;96400.84;5076209;28;20415;-74
2021/11/23 07:46:36;;;;;;;27.42;11.77;;;;;;;-0.09;100.00;96403.50;5086107;28;20040;-75
2021/11/23 07:49:03;;;;;;;29.52;11.15;;;;;;;-0.14;100.00;96401.47;5084035;28;20040;-74
2021/11/23 07:51:29;;;;;;;27.38;11.50;;;;;;;0.00;100.00;96402.44;5072182;28;20036;-75
2021/11/23 07:53:54;;;;;;;35.15;11.63;;;;;;;-0.03;100.00;96402.78;5082367;28;20721;-75
2021/11/23 07:56:20;;;;;;;25.58;10.77;;;;;;;-0.02;100.00;96404.38;5068413;28;20067;-75
2021/11/23 07:58:46;;;;;;;33.00;12.20;;;;;;;0.02;100.00;96405.63;5081948;28;20524;-75
2021/11/23 08:01:12;;;;;;;27.10;11.93;;;;;;;0.03;100.00;96407.25;5078344;28;20725;-75
2021/11/23 08:03:39;;;;;;;31.55;12.02;;;;;;;0.07;100.00;96407.66;5087070;28;20040;-75
2021/11/23 08:06:05;;;;;;;26.80;11.10;;;;;;;-0.01;100.00;96400.81;5079564;28;20040;-76
2021/11/23 08:08:30;;;;;;;30.23;12.13;;;;;;;0.10;100.00;96402.94;5073986;28;20422;-74
2021/11/23 08:10:58;;;;;;;27.52;11.70;;;;;;;0.16;100.00;96407.41;5070920;28;20040;-75
2021/11/23 08:13:24;;;;;;;26.33;11.80;;;;;;;0.19;100.00;96411.41;5073536;28;20166;-74
2021/11/23 08:15:50;;;;;;;33.83;11.93;;;;;;;0.32;100.00;96411.56;5076756;28;20052;-72
2021/11/23 08:18:16;;;;;;;30.50;12.07;;;;;;;0.31;100.00;96414.34;5087195;28;20041;-73
2021/11/23 08:20:43;;;;;;;25.88;10.80;;;;;;;0.34;100.00;96408.78;5082426;28;20040;-72
2021/11/23 08:23:09;;;;;;;27.20;11.68;;;;;;;0.28;100.00;96414.69;5078479;28;20040;-72
2021/11/23 08:25:35;;;;;;;25.33;11.38;;;;;;;0.50;100.00;96413.75;5079506;28;20544;-72
2021/11/23 08:28:00;;;;;;;26.23;12.43;;;;;;;0.33;100.00;96417.53;5067540;28;20052;-74
2021/11/23 08:30:26;;;;;;;22.90;11.00;;;;;;;0.42;100.00;96416.44;5072386;28;20069;-72
2021/11/23 08:32:52;;;;;;;26.38;11.52;;;;;;;0.63;100.00;96423.47;5082298;28;20047;-75
2021/11/23 08:35:18;;;;;;;22.02;10.45;;;;;;;0.51;100.00;96420.53;5073996;28;20071;-75
2021/11/23 08:37:43;;;;;;;26.40;12.00;;;;;;;0.38;100.00;96420.38;5073710;28;20083;-74
2021/11/23 08:40:10;;;;;;;24.48;10.63;;;;;;;0.44;100.00;96424.81;5077022;28;20514;-75
2021/11/23 08:42:37;;;;;;;26.95;10.75;;;;;;;0.40;100.00;96428.75;5074919;28;20044;-76
2021/11/23 08:45:04;;;;;;;29.55;11.85;;;;;;;0.45;100.00;96425.66;5076829;28;20047;-74
2021/11/23 08:47:30;;;;;;;27.30;11.82;;;;;;;0.49;100.00;96427.69;5077118;28;20059;-73
2021/11/23 08:49:56;;;;;;;30.27;11.23;;;;;;;0.55;100.00;96427.91;5067304;28;20040;-74
2021/11/23 08:52:22;;;;;;;26.88;11.85;;;;;;;0.49;100.00;96427.69;5062163;28;20037;-72
2021/11/23 08:54:48;;;;;;;27.38;12.13;;;;;;;0.65;100.00;96420.69;5067553;28;20067;-73
2021/11/23 08:57:14;;;;;;;25.23;11.77;;;;;;;0.55;100.00;96430.50;5059105;28;20566;-74
2021/11/23 08:59:43;;;;;;;29.20;12.32;;;;;;;0.67;100.00;96434.25;5065108;28;20488;-75
2021/11/23 09:02:11;;;;;;;31.25;12.52;;;;;;;0.74;100.00;96439.50;5061856;28;20457;-74
2021/11/23 09:04:37;;;;;;;27.13;12.05;;;;;;;0.75;100.00;96441.09;5059121;28;20102;-74
2021/11/23 09:07:06;;;;;;;29.00;12.68;;;;;;;0.72;100.00;96437.09;5056843;28;20598;-74
2021/11/23 09:09:32;;;;;;;26.27;12.52;;;;;;;0.72;100.00;96439.69;5061612;28;20036;-73
2021/11/23 09:12:01;;;;;;;24.33;11.43;;;;;;;0.70;100.00;96446.81;5067488;28;20063;-73
2021/11/23 09:14:28;;;;;;;27.48;13.40;;;;;;;0.96;100.00;96453.25;5065117;28;20498;-74
2021/11/23 09:16:54;;;;;;;26.85;12.40;;;;;;;1.24;100.00;96447.34;5053071;28;20044;-74
2021/11/23 09:19:20;;;;;;;27.75;12.65;;;;;;;1.21;100.00;96451.91;5055045;28;20117;-75
2021/11/23 09:21:45;;;;;;;28.85;11.85;;;;;;;1.21;100.00;96451.91;5065148;28;20413;-74
2021/11/23 09:24:11;;;;;;;29.48;12.90;;;;;;;1.46;100.00;96454.06;5062599;28;20049;-74
2021/11/23 09:26:37;;;;;;;23.10;11.00;;;;;;;1.60;100.00;96451.59;5067865;28;20505;-74
2021/11/23 09:29:03;;;;;;;28.58;12.70;;;;;;;1.66;100.00;96445.66;5064023;28;20044;-74
2021/11/23 09:31:29;;;;;;;26.10;13.02;;;;;;;1.86;100.00;96449.16;5067340;28;20040;-74
2021/11/23 09:33:54;;;;;;;26.95;12.02;;;;;;;1.81;100.00;96446.34;5060625;28;20859;-74
2021/11/23 09:36:20;;;;;;;27.92;12.23;;;;;;;1.94;100.00;96450.00;5058546;28;20132;-72
2021/11/23 09:38:46;;;;;;;27.45;12.35;;;;;;;1.85;100.00;96452.78;5058203;28;20467;-72
2021/11/23 09:41:11;;;;;;;29.58;12.85;;;;;;;1.92;100.00;96457.19;5061908;28;21490;-71
2021/11/23 09:43:39;;;;;;;23.50;11.88;;;;;;;1.84;100.00;96456.34;5056369;28;20048;-73
2021/11/23 09:46:08;;;;;;;24.15;11.40;;;;;;;2.15;100.00;96452.50;5062997;28;20043;-72
2021/11/23 09:48:35;;;;;;;28.20;13.00;;;;;;;1.79;100.00;96447.53;5062656;28;20040;-74
2021/11/23 09:51:00;;;;;;;23.65;12.38;;;;;;;2.06;100.00;96453.69;5057824;28;20040;-74
2021/11/23 09:53:26;;;;;;;24.88;11.85;;;;;;;1.95;100.00;96451.59;5066555;28;20417;-74
2021/11/23 09:55:53;;;;;;;23.88;11.77;;;;;;;2.07;100.00;96444.91;5064330;28;20041;-72
2021/11/23 09:58:20;;;;;;;23.40;11.43;;;;;;;2.26;98.91;96438.19;5055127;28;20029;-72
2021/11/23 10:00:49;;;;;;;24.15;11.32;;;;;;;1.93;100.00;96453.59;5056205;28;20045;-74
2021/11/23 10:03:27;;;;;;;28.50;13.15;;;;;;;1.85;100.00;96455.38;5067532;28;20115;-72
2021/11/23 10:06:04;;;;;;;30.23;12.63;;;;;;;1.97;100.00;96454.81;5057540;28;20060;-72
2021/11/23 10:08:30;;;;;;;25.30;12.27;;;;;;;1.79;100.00;96443.13;5049475;28;20573;-73
2021/11/23 10:10:56;;;;;;;23.83;11.77;;;;;;;2.14;100.00;96445.72;5063629;28;20529;-73
2021/11/23 10:13:22;;;;;;;26.70;12.65;;;;;;;2.06;100.00;96448.47;5060813;28;20045;-73
2021/11/23 10:15:49;;;;;;;25.35;12.25;;;;;;;1.97;100.00;96444.41;5079609;28;20044;-73
2021/11/23 10:18:20;;;;;;;29.63;13.07;;;;;;;1.70;100.00;96449.47;5089272;28;20048;-73
2021/11/23 10:20:49;;;;;;;27.98;13.82;;;;;;;1.71;100.00;96435.47;5064146;28;20128;-73
2021/11/23 10:23:30;;;;;;;27.80;13.48;;;;;;;1.79;100.00;96443.13;5064939;28;20041;-73
2021/11/23 10:26:08;;;;;;;28.13;14.27;;;;;;;1.75;100.00;96434.13;5055090;28;20429;-73
2021/11/23 10:28:34;;;;;;;30.45;13.88;;;;;;;1.70;100.00;96433.91;5055155;28;20047;-73
2021/11/23 10:31:04;;;;;;;32.53;15.02;;;;;;;1.80;100.00;96434.34;5066774;28;20048;-72
2021/11/23 10:33:32;;;;;;;27.73;13.13;;;;;;;1.80;100.00;96428.38;5067113;28;20037;-72
2021/11/23 10:35:59;;;;;;;24.77;11.70;;;;;;;1.62;100.00;96426.25;5059461;28;20503;-72
2021/11/23 10:38:26;;;;;;;25.42;12.32;;;;;;;1.80;100.00;96434.34;5076316;28;20040;-72
2021/11/23 10:40:53;;;;;;;28.33;13.40;;;;;;;2.06;100.00;96427.72;5066633;28;20140;-73
2021/11/23 10:43:20;;;;;;;26.17;13.75;;;;;;;2.11;100.00;96430.50;5071857;28;20043;-73
2021/11/23 10:45:54;;;;;;;27.15;14.07;;;;;;;2.18;100.00;96426.16;5052903;28;20037;-73
2021/11/23 10:48:23;;;;;;;30.17;13.23;;;;;;;2.20;100.00;96424.19;5059105;28;20048;-73
2021/11/23 10:51:02;;;;;;;27.58;13.00;;;;;;;2.14;100.00;96424.13;5059814;28;20090;-73
2021/11/23 10:53:27;;;;;;;26.00;13.07;;;;;;;2.10;100.00;96421.13;5068219;28;20075;-73
2021/11/23 10:55:53;;;;;;;23.10;12.07;;;;;;;1.97;100.00;96421.06;5049256;28;20044;-73
2021/11/23 10:58:18;;;;;;;28.13;13.02;;;;;;;2.06;100.00;96425.09;5056047;28;20044;-73
2021/11/23 11:00:47;;;;;;;28.23;12.65;;;;;;;2.10;100.00;96418.53;5065410;28;20040;-73
2021/11/23 11:03:16;;;;;;;28.10;13.48;;;;;;;2.16;100.00;96422.97;5068129;28;20047;-73
2021/11/23 11:05:43;;;;;;;25.52;12.65;;;;;;;2.20;100.00;96418.97;5050949;28;20045;-73
2021/11/23 11:08:11;;;;;;;23.55;12.80;;;;;;;2.24;100.00;96416.78;5064304;28;20041;-73
2021/11/23 11:10:38;;;;;;;29.88;12.48;;;;;;;2.32;100.00;96419.22;5062365;28;20044;-73
2021/11/23 11:13:10;;;;;;;36.35;12.38;;;;;;;2.49;98.78;96427.47;5062449;28;20072;-73